Terminal Aerodrome Forecast
Issued by NWS

Home | Current Version | Previous Version | Graphics & Text | Print | Product List | Glossary On
Versions: 1 2 3 4 5 6 7 8 9 10 11 12 13 14 15 16 17 18 19 20 21 22
000
FTUS43 KIWX 181700
TAFSBN
TAF
KSBN 181730Z 1818/1918 VRB03KT P6SM SCT025 BKN060
     FM182200 18004KT P6SM BKN250
      TEMPO 1909/1913 5SM BR SCT015=

USA.gov is the U.S. government's official web portal to all federal, state and local government web resources and services.